Poy Sippi, WI (54967)

5:16 AM CST on February 07, 2016 (GMT -0600)
KWILARSE2 | | Change Station
CLOSE
Current Station
Personal Weather Station
Location: Lake Poygan - Town of Wolf River, WI
Elevation: 792 ft
Nearby Weather Stations

Elev 792 ft 44.17 °N, 88.77 °W | Updated 4 minutes ago

Overcast
Overcast
36.4 °F
Feels Like 29 °F
N
10.0
Wind Variable Wind from SSW
Gusts 18.0 mph

Today
High -- | Low -- °F
--% Chance of Precip.
Yesterday
High -- | Low -- °F
Precip. -- in
Pressure 29.71 in
Visibility 10.0 miles
Clouds Scattered Clouds 8000 ft
Overcast 10000 ft
Windchill 29 °F
Dew Point 33 °F
Humidity 86%
Rainfall 0.00 in
Snow Depth Not available.
7:06 AM 5:13 PM
Waning Crescent, 2% visible
METAR KPCZ 071055Z AUTO 18005KT 10SM SCT080 OVC100 02/M01 A2971 RMK AO2 T00181011
Pressure 29.71 in
Visibility 10.0 miles
Clouds Scattered Clouds 8000 ft
Overcast 10000 ft
Windchill 29 °F
Dew Point 33 °F
Humidity 86%
Rainfall 0.00 in
Snow Depth Not available.
7:06 AM 5:13 PM
Waning Crescent, 2% visible
METAR KPCZ 071055Z AUTO 18005KT 10SM SCT080 OVC100 02/M01 A2971 RMK AO2 T00181011

10-Day Weather Forecast

Almanac

Astronomy

Feb. 07, 2016 Rise Set
Actual Time
Civil Twilight
Nautical Twilight
Astronomical Twilight
Moon
Length of Visible Light
Length of Day
Tomorrow will be .
, % of the Moon is Illuminated

Today's Extremes

State Highs State Lows

Community

WunderPhotos

Upload Photos

1,891,170 photos uploaded!

WunderBlog® & News

Nearby

Air Quality

  Air Quality AQ Index Pollutant
Not available.

Snow Depth

Station Depth Elevation

Earthquake Activity

City Distance Mag. Time & Date
Minimum magnitude displayed is 2.5.

Coastal Water Temperatures

Place Temperature

Stations

Nearby Weather Stations

Station Location Temp. Windchill Dew Point Humidity Wind Precip. Elev Updated Type
                   

Watches & Warnings

There are currently no watches in effect.